createdAt,value
2023-03-18T17:11:10.239Z,13.90
2023-03-18T17:13:44.805Z,12.50
2023-03-18T17:16:19.016Z,10.60
2023-03-18T17:18:47.165Z,11.10
2023-03-18T17:21:18.514Z,9.50
2023-03-18T17:23:47.937Z,8.50
2023-03-18T17:26:16.414Z,8.00
2023-03-18T17:28:48.398Z,6.70
2023-03-18T17:31:17.123Z,6.10
2023-03-18T17:33:51.185Z,6.30
2023-03-18T17:36:20.655Z,6.40
2023-03-18T17:38:48.980Z,7.10
2023-03-18T17:41:21.345Z,6.30
2023-03-18T17:43:54.954Z,7.40
2023-03-18T17:46:23.307Z,7.70
2023-03-18T17:48:51.798Z,9.50
2023-03-18T17:51:24.705Z,8.20
2023-03-18T17:53:56.885Z,9.60
2023-03-18T17:56:25.985Z,10.00
2023-03-18T17:58:56.696Z,9.40
2023-03-18T18:01:30.205Z,11.40
2023-03-18T18:03:59.140Z,8.80
2023-03-18T18:06:30.742Z,9.40
2023-03-18T18:09:00.491Z,10.00
2023-03-18T18:11:35.776Z,11.00
2023-03-18T18:14:25.785Z,10.70
2023-03-18T18:16:54.186Z,11.90
2023-03-18T18:19:24.322Z,12.40
2023-03-18T18:21:53.465Z,15.40
2023-03-18T18:24:29.078Z,14.90
2023-03-18T18:26:57.394Z,14.30
2023-03-18T18:29:28.318Z,15.50
2023-03-18T18:31:58.048Z,14.20
2023-03-18T18:34:26.806Z,16.10
2023-03-18T18:36:54.802Z,17.80
2023-03-18T18:39:22.997Z,16.20
2023-03-18T18:42:10.182Z,15.20
2023-03-18T18:44:39.004Z,14.60
2023-03-18T18:47:19.611Z,12.50
2023-03-18T18:49:52.011Z,11.60
2023-03-18T18:52:20.225Z,14.10
2023-03-18T18:54:48.468Z,13.20
2023-03-18T18:57:29.451Z,19.80
2023-03-18T18:59:59.280Z,12.00
2023-03-18T19:02:33.924Z,13.90
2023-03-18T19:05:04.777Z,12.30
2023-03-18T19:07:33.818Z,16.00
2023-03-18T19:10:01.879Z,12.00
2023-03-18T19:12:30.394Z,11.30
2023-03-18T19:14:59.829Z,20.60
2023-03-18T19:17:28.380Z,14.20
2023-03-18T19:19:56.880Z,16.90
2023-03-18T19:22:26.280Z,12.80
2023-03-18T19:24:54.917Z,11.40
2023-03-18T19:27:30.330Z,11.10
2023-03-18T19:30:00.157Z,11.60
2023-03-18T19:32:28.204Z,13.10
2023-03-18T19:34:59.432Z,13.50
2023-03-18T19:37:32.427Z,15.90
2023-03-18T19:40:01.813Z,11.70
2023-03-18T19:42:30.571Z,15.20
2023-03-18T19:44:58.726Z,14.00
2023-03-18T19:47:31.766Z,15.90
2023-03-18T19:52:33.354Z,14.60
2023-03-18T19:55:08.255Z,13.70
2023-03-18T19:57:37.537Z,13.60
2023-03-18T20:00:30.295Z,14.70
2023-03-18T20:02:58.675Z,13.20
2023-03-18T20:05:27.771Z,13.80
2023-03-18T20:07:56.747Z,13.20
2023-03-18T20:10:25.124Z,30.80
2023-03-18T20:12:57.643Z,17.80
2023-03-18T20:15:28.948Z,14.10
2023-03-18T20:18:01.051Z,17.70
2023-03-18T20:20:32.176Z,16.00
2023-03-18T20:23:02.281Z,17.10
2023-03-18T20:25:32.951Z,19.40
2023-03-18T20:28:04.799Z,22.40
2023-03-18T20:30:37.771Z,23.50
2023-03-18T20:33:07.472Z,19.80
2023-03-18T20:35:39.337Z,36.70
2023-03-18T20:38:10.533Z,22.00
2023-03-18T20:40:41.151Z,21.70
2023-03-18T20:43:19.280Z,22.00
2023-03-18T20:45:51.771Z,18.00
2023-03-18T20:48:21.114Z,16.60
2023-03-18T20:50:51.899Z,23.00
2023-03-18T20:53:22.616Z,18.60
2023-03-18T20:55:51.136Z,18.20
2023-03-18T20:58:22.247Z,22.90
2023-03-18T21:00:52.328Z,23.00
2023-03-18T21:03:29.648Z,22.60
2023-03-18T21:05:59.048Z,18.80
2023-03-18T21:08:28.440Z,22.30
2023-03-18T21:11:03.355Z,21.40
2023-03-18T21:13:38.004Z,21.30
2023-03-18T21:16:09.961Z,20.90
2023-03-18T21:18:45.517Z,21.20
2023-03-18T21:21:18.085Z,18.80
2023-03-18T21:23:49.376Z,22.10
2023-03-18T21:26:19.351Z,16.10
2023-03-18T21:28:48.469Z,19.90
2023-03-18T21:31:26.290Z,20.90
2023-03-18T21:33:55.414Z,23.40
2023-03-18T21:36:26.480Z,20.40
2023-03-18T21:38:55.467Z,21.00
2023-03-18T21:41:28.204Z,21.80
2023-03-18T21:43:56.429Z,20.40
2023-03-18T21:46:27.090Z,19.20
2023-03-18T21:48:55.997Z,21.20
2023-03-18T21:51:38.731Z,21.00
2023-03-18T21:54:20.583Z,21.40
2023-03-18T21:56:51.752Z,17.20
2023-03-18T21:59:23.080Z,26.80
2023-03-18T22:01:53.236Z,27.00
2023-03-18T22:04:22.268Z,22.90
2023-03-18T22:06:51.038Z,25.70
2023-03-18T22:09:19.100Z,24.40
2023-03-18T22:11:47.120Z,24.40
2023-03-18T22:14:22.352Z,25.30
2023-03-18T22:16:50.400Z,30.40
2023-03-18T22:19:18.739Z,29.80
2023-03-18T22:21:46.969Z,29.10
2023-03-18T22:24:15.764Z,26.40
2023-03-18T22:26:43.931Z,27.50
2023-03-18T22:29:12.631Z,25.50
2023-03-18T22:31:43.790Z,34.40
2023-03-18T22:34:22.665Z,34.30
2023-03-18T22:36:50.699Z,37.70
2023-03-18T22:39:18.796Z,35.90
2023-03-18T22:41:50.946Z,35.70
2023-03-18T22:44:22.759Z,34.30
2023-03-18T22:46:51.034Z,32.00
2023-03-18T22:49:19.114Z,30.20
2023-03-18T22:51:48.031Z,29.80
2023-03-18T22:54:19.136Z,25.70
2023-03-18T22:56:47.130Z,32.20
2023-03-18T22:59:15.360Z,28.70
2023-03-18T23:01:43.982Z,32.40
2023-03-18T23:04:12.344Z,27.80
2023-03-18T23:06:44.252Z,28.40
2023-03-18T23:09:13.886Z,28.20
2023-03-18T23:11:41.918Z,25.40
2023-03-18T23:14:11.075Z,22.60
2023-03-18T23:16:41.414Z,24.80
2023-03-18T23:19:09.586Z,25.00
2023-03-18T23:21:37.852Z,28.10
2023-03-18T23:24:07.247Z,24.30
2023-03-18T23:26:36.801Z,22.50
2023-03-18T23:29:06.153Z,29.40
2023-03-18T23:31:34.403Z,23.00
2023-03-18T23:34:03.712Z,22.70
2023-03-18T23:36:32.711Z,21.60
2023-03-18T23:39:01.392Z,25.70
2023-03-18T23:41:30.816Z,29.70
2023-03-18T23:44:03.264Z,29.20
2023-03-18T23:46:32.752Z,26.30
2023-03-18T23:49:00.831Z,24.30
2023-03-18T23:51:29.133Z,32.00
2023-03-18T23:53:57.185Z,18.80
2023-03-18T23:56:26.316Z,16.60
2023-03-18T23:58:54.974Z,17.90
